Terminal Aerodrome Forecast
Issued by NWS

Home | Current Version | Previous Version | Text Only | Print | Product List | Glossary On
Versions: 1 2 3 4 5 6 7 8 9 10 11 12 13 14 15 16 17
000
FTUS42 KMLB 021120
TAFSFB
TAF
KSFB 021120Z 0212/0312 15005KT P6SM FEW035 SCT250
     FM021400 21005KT P6SM FEW030 SCT250
     FM022000 16008KT P6SM VCTS SCT035CB BKN100
     FM030000 19004KT P6SM SCT050 BKN120=

USA.gov is the U.S. government's official web portal to all federal, state and local government web resources and services.